Portales, NM (88130)

11:40 PM MDT on August 27, 2014 (GMT -0600)
S of ENMU | Change Station
CLOSE
Current Station
Personal Weather Station
Location: Portales, NM
Elevation: 4078 ft
Nearby Weather Stations

Elev 4078 ft 34.17 °N, 103.35 °W | Updated 1 second ago

Partly Cloudy
Partly Cloudy
78.3 °F
Feels Like 79 °F
N
1.8
Wind Variable Wind from North
Gusts 1.8 mph

Today
High -- | Low -- °F
--% Chance of Precip.
Yesterday
High -- | Low -- °F
Precip. -- in
6:23 AM 7:25 PM
Waxing Crescent, 6% visible
Pressure 29.97 in
Visibility 10.0 miles
Clouds Few 15000 ft
Heat Index 79 °F
Dew Point 56 °F
Humidity 47%
Rainfall 0.00 in
Snow Depth Not available.
UV 0 out of 12
Pollen 8.90 out of 12
Air Quality Not available.
Flu Activity Not available.
METAR KCVS 280458Z AUTO 18006KT 10SM FEW150 20/14 A3014 RMK AO2 SLP149 T02020144 $

More Conditions Fewer Conditions

Pressure 29.97 in
Visibility 10.0 miles
Clouds Few 15000 ft
Heat Index 79 °F
Dew Point 56 °F
Humidity 47%
Rainfall 0.00 in
Snow Depth Not available.
UV 0 out of 12
Pollen 8.90 out of 12
Air Quality Not available.
Flu Activity Not available.
METAR KCVS 280458Z AUTO 18006KT 10SM FEW150 20/14 A3014 RMK AO2 SLP149 T02020144 $

More Conditions Fewer Conditions

10-Day Weather Forecast

Almanac

Astronomy

Aug. 27, 2014 Rise Set
Actual Time 6:23 AM MDT 7:25 PM MDT
Civil Twilight 5:57 AM MDT 7:51 PM MDT
Nautical Twilight 5:26 AM MDT 8:22 PM MDT
Astronomical Twilight 4:55 AM MDT 8:53 PM MDT
Moon 8:14 AM MDT (8/27) 8:27 PM MDT (8/27)
Length of Visible Light 13h 53m
Length of Day
13h 02m
Tomorrow will be 2m 0s shorter.
Waxing Crescent, 6% of the Moon is Illuminated
Aug 28
Waxing Crescent
Sep 2
First Quarter
Sep 8
Full
Sep 15
Last Quarter
Sep 24
New

Yesterday's Extremes

State Highs State Lows

Community

WunderPhotos

Upload Photos

1,747,909 photos uploaded!

Nearby

Snow Depth

Station Depth Elevation
Sierra Blanca 1 in 10280 ft
Wesner Springs 2 in 11120 ft
Santa Fe 0 in 11445 ft
Gallegos Peak 0 in 9800 ft
Tolby 0 in 10180 ft

Earthquake Activity

City Distance Mag. Time & Date
No recent earthquake activity has been reported nearby.
Minimum magnitude displayed is 2.5.

Coastal Water Temperatures

Place Temperature
No Stations Reporting

Nearby Weather Stations